createdAt,value
2018-08-14T00:03:05.347Z,100347.44
2018-08-14T00:06:10.417Z,100345.50
2018-08-14T00:09:14.643Z,100347.70
2018-08-14T00:12:18.892Z,100347.69
2018-08-14T00:15:23.191Z,100350.16
2018-08-14T00:18:27.425Z,100347.95
2018-08-14T00:21:31.658Z,100349.05
2018-08-14T00:24:35.881Z,100336.15
2018-08-14T00:27:41.015Z,100342.19
2018-08-14T00:30:45.214Z,100346.87
2018-08-14T00:33:49.471Z,100348.23
2018-08-14T00:36:53.793Z,100349.06
2018-08-14T00:39:58.037Z,100345.48
2018-08-14T00:43:04.228Z,100336.15
2018-08-14T00:46:08.461Z,100338.36
2018-08-14T00:49:12.685Z,100334.25
2018-08-14T00:52:17.073Z,100327.36
2018-08-14T00:55:22.776Z,100334.22
2018-08-14T00:58:27.016Z,100337.55
2018-08-14T01:01:31.280Z,100333.14
2018-08-14T01:04:35.788Z,100335.33
2018-08-14T01:07:40.039Z,100323.77
2018-08-14T01:10:44.297Z,100331.48
2018-08-14T01:13:48.554Z,100332.56
2018-08-14T01:16:52.810Z,100332.57
2018-08-14T01:19:57.045Z,100328.98
2018-08-14T01:23:01.712Z,100331.17
2018-08-14T01:26:05.944Z,100332.00
2018-08-14T01:29:10.173Z,100332.83
2018-08-14T01:32:15.661Z,100330.36
2018-08-14T01:35:19.990Z,100327.64
2018-08-14T01:38:24.211Z,100330.38
2018-08-14T01:41:28.444Z,100327.34
2018-08-14T01:44:32.693Z,100327.89
2018-08-14T01:47:36.925Z,100327.64
2018-08-14T01:50:41.193Z,100323.22
2018-08-14T01:53:45.430Z,100324.61
2018-08-14T01:56:49.641Z,100331.20
2018-08-14T01:59:53.893Z,100327.36
2018-08-14T02:02:58.137Z,100332.57
2018-08-14T02:06:02.390Z,100334.77
2018-08-14T02:09:09.537Z,100333.65
2018-08-14T02:12:14.134Z,100332.30
2018-08-14T02:15:18.985Z,100330.09
2018-08-14T02:18:23.189Z,100335.59
2018-08-14T02:21:27.396Z,100333.66
2018-08-14T02:24:31.611Z,100334.50
2018-08-14T02:27:35.845Z,100333.67
2018-08-14T02:30:40.108Z,100335.61
2018-08-14T02:33:44.340Z,100331.47
2018-08-14T02:36:48.624Z,100332.84
2018-08-14T02:39:52.870Z,100333.67
2018-08-14T02:42:57.105Z,100333.11
2018-08-14T02:46:01.405Z,100334.77
2018-08-14T02:49:05.662Z,100324.89
2018-08-14T02:52:09.920Z,100333.13
2018-08-14T02:55:19.087Z,100335.05
2018-08-14T02:58:23.333Z,100334.20
2018-08-14T03:01:27.560Z,100328.16
2018-08-14T03:04:31.781Z,100325.43
2018-08-14T03:07:36.040Z,100330.92
2018-08-14T03:10:40.260Z,100334.50
2018-08-14T03:13:44.509Z,100329.83
2018-08-14T03:16:48.812Z,100334.50
2018-08-14T03:19:53.247Z,100337.24
2018-08-14T03:22:57.496Z,100334.50
2018-08-14T03:26:01.789Z,100333.95
2018-08-14T03:29:06.029Z,100337.24
2018-08-14T03:32:10.242Z,100334.50
2018-08-14T03:35:15.928Z,100337.80
2018-08-14T03:38:20.174Z,100335.61
2018-08-14T03:41:24.445Z,100341.36
2018-08-14T03:44:28.677Z,100335.06
2018-08-14T03:47:32.950Z,100340.82
2018-08-14T03:50:37.156Z,100340.55
2018-08-14T03:53:41.410Z,100335.89
2018-08-14T03:56:45.644Z,100340.01
2018-08-14T03:59:49.877Z,100342.18
2018-08-14T04:02:54.076Z,100338.89
2018-08-14T04:05:58.329Z,100329.82
2018-08-14T04:09:02.569Z,100335.33
2018-08-14T04:12:06.807Z,100334.25
2018-08-14T04:15:12.448Z,100340.57
2018-08-14T04:18:16.697Z,100338.06
2018-08-14T04:21:20.947Z,100340.53
2018-08-14T04:24:25.197Z,100346.59
2018-08-14T04:27:29.441Z,100346.86
2018-08-14T04:30:33.648Z,100349.86
2018-08-14T04:33:37.858Z,100350.42
2018-08-14T04:36:42.040Z,100349.88
2018-08-14T04:39:46.273Z,100352.06
2018-08-14T04:42:50.473Z,100347.96
2018-08-14T04:45:54.760Z,100353.73
2018-08-14T04:48:58.969Z,100357.03
2018-08-14T04:52:03.465Z,100356.20
2018-08-14T04:55:08.825Z,100364.16
2018-08-14T04:58:13.085Z,100362.50
2018-08-14T05:01:17.361Z,100371.04
2018-08-14T05:04:21.601Z,100375.68
2018-08-14T05:07:25.805Z,100375.41
2018-08-14T05:10:30.017Z,100373.46
2018-08-14T05:13:38.400Z,100380.88
2018-08-14T05:16:42.604Z,100382.81
2018-08-14T05:19:46.854Z,100381.44
2018-08-14T05:22:51.174Z,100391.03
2018-08-14T05:25:58.820Z,100391.33
2018-08-14T05:29:04.049Z,100389.10
2018-08-14T05:32:08.432Z,100398.17
2018-08-14T05:35:13.256Z,100398.41
2018-08-14T05:38:17.496Z,100403.91
2018-08-14T05:41:21.764Z,100400.05
2018-08-14T05:44:26.790Z,100405.81
2018-08-14T05:47:31.157Z,100409.64
2018-08-14T05:50:36.873Z,100414.03
2018-08-14T05:53:41.129Z,100416.20
2018-08-14T05:56:46.793Z,100427.42
2018-08-14T05:59:51.301Z,100418.59
2018-08-14T06:02:56.298Z,100416.91
2018-08-14T06:06:00.508Z,100413.28
2018-08-14T06:09:07.685Z,100417.94
2018-08-14T06:12:12.604Z,100413.78
2018-08-14T06:15:17.293Z,100419.80
2018-08-14T06:18:21.552Z,100419.49
2018-08-14T06:21:25.816Z,100429.65
2018-08-14T06:24:30.625Z,100434.27
2018-08-14T06:27:35.217Z,100441.12
2018-08-14T06:30:39.484Z,100442.18
2018-08-14T06:33:44.726Z,100442.69
2018-08-14T06:36:49.493Z,100445.99
2018-08-14T06:39:53.745Z,100449.26
2018-08-14T06:42:58.033Z,100451.95
2018-08-14T06:46:02.365Z,100453.87
2018-08-14T06:49:06.693Z,100455.25
2018-08-14T06:52:10.909Z,100456.08
2018-08-14T06:55:15.967Z,100455.53
2018-08-14T06:58:20.209Z,100464.31
2018-08-14T07:01:24.477Z,100462.39
2018-08-14T07:04:28.704Z,100473.16
2018-08-14T07:07:32.953Z,100472.58
2018-08-14T07:10:37.192Z,100471.13
2018-08-14T07:13:41.416Z,100472.16
2018-08-14T07:16:45.674Z,100472.84
2018-08-14T07:19:49.933Z,100480.73
2018-08-14T07:22:54.211Z,100482.08
2018-08-14T07:25:58.470Z,100482.88
2018-08-14T07:29:02.785Z,100483.70
2018-08-14T07:32:07.138Z,100486.50
2018-08-14T07:35:11.432Z,100488.67
2018-08-14T07:38:15.713Z,100491.82
2018-08-14T07:41:24.327Z,100494.02
2018-08-14T07:44:29.091Z,100495.04
2018-08-14T07:47:33.395Z,100490.03
2018-08-14T07:50:37.640Z,100493.52
2018-08-14T07:53:41.914Z,100501.94
2018-08-14T07:56:46.137Z,100496.64
2018-08-14T07:59:50.399Z,100505.33
2018-08-14T08:02:54.621Z,100495.54
2018-08-14T08:05:58.870Z,100501.42
2018-08-14T08:09:03.165Z,100500.11
2018-08-14T08:12:07.514Z,100503.32
2018-08-14T08:15:13.361Z,100517.94
2018-08-14T08:18:17.657Z,100523.59
2018-08-14T08:21:21.907Z,100519.86
2018-08-14T08:24:26.195Z,100526.95
2018-08-14T08:27:30.553Z,100522.65
2018-08-14T08:30:34.860Z,100517.84
2018-08-14T08:33:39.129Z,100520.74
2018-08-14T08:36:43.417Z,100527.22
2018-08-14T08:39:47.730Z,100525.70
2018-08-14T08:42:52.039Z,100528.33
2018-08-14T08:45:56.321Z,100534.62
2018-08-14T08:49:00.616Z,100529.86
2018-08-14T08:52:04.853Z,100535.27
2018-08-14T08:55:11.234Z,100539.23
2018-08-14T08:58:15.627Z,100545.00
2018-08-14T09:01:19.812Z,100540.55
2018-08-14T09:04:24.061Z,100545.27
2018-08-14T09:07:28.256Z,100544.36
2018-08-14T09:10:32.512Z,100554.72
2018-08-14T09:13:36.737Z,100553.39
2018-08-14T09:16:41.005Z,100550.88
2018-08-14T09:19:45.272Z,100555.00
2018-08-14T09:22:49.549Z,100548.80
2018-08-14T09:25:53.785Z,100545.78
2018-08-14T09:28:58.063Z,100557.95
2018-08-14T09:32:02.378Z,100553.69
2018-08-14T09:35:07.917Z,100563.92
2018-08-14T09:38:12.144Z,100557.92
2018-08-14T09:41:16.465Z,100561.64
2018-08-14T09:44:20.744Z,100563.09
2018-08-14T09:47:25.018Z,100565.64
2018-08-14T09:50:29.276Z,100568.61
2018-08-14T09:53:33.505Z,100573.48
2018-08-14T09:56:37.753Z,100576.98
2018-08-14T09:59:42.073Z,100580.06
2018-08-14T10:02:46.313Z,100580.25
2018-08-14T10:05:55.767Z,100588.54
2018-08-14T10:09:00.069Z,100588.41
2018-08-14T10:12:04.393Z,100584.16
2018-08-14T10:15:08.695Z,100587.56
2018-08-14T10:18:19.555Z,100593.16
2018-08-14T10:21:23.934Z,100595.76
2018-08-14T10:24:28.332Z,100595.76
2018-08-14T10:27:32.717Z,100587.56
2018-08-14T10:30:37.093Z,100598.55
2018-08-14T10:33:41.366Z,100608.01
2018-08-14T10:36:45.623Z,100615.92
2018-08-14T10:39:50.005Z,100618.47
2018-08-14T10:42:54.193Z,100626.28
2018-08-14T10:45:58.470Z,100618.78
2018-08-14T10:49:02.724Z,100621.77
2018-08-14T10:52:07.009Z,100625.00
2018-08-14T10:55:11.332Z,100630.23
2018-08-14T10:58:15.605Z,100626.30
2018-08-14T11:01:19.874Z,100631.99
2018-08-14T11:04:24.110Z,100636.37
2018-08-14T11:07:28.395Z,100635.07
2018-08-14T11:10:37.840Z,100652.05
2018-08-14T11:13:42.063Z,100649.61
2018-08-14T11:16:46.604Z,100651.06
2018-08-14T11:19:50.812Z,100658.13
2018-08-14T11:22:55.082Z,100646.49
2018-08-14T11:25:59.321Z,100651.96
2018-08-14T11:29:03.569Z,100658.17
2018-08-14T11:32:07.881Z,100662.45
2018-08-14T11:35:12.095Z,100660.03
2018-08-14T11:38:16.332Z,100655.62
2018-08-14T11:41:20.532Z,100662.80
2018-08-14T11:44:24.773Z,100667.72
2018-08-14T11:47:29.001Z,100667.56
2018-08-14T11:50:33.204Z,100659.83
2018-08-14T11:53:37.405Z,100664.18
2018-08-14T11:56:41.693Z,100671.13
2018-08-14T11:59:45.905Z,100669.33
2018-08-14T12:02:51.003Z,100673.89
2018-08-14T12:05:55.244Z,100677.71
2018-08-14T12:08:59.492Z,100679.77
2018-08-14T12:12:03.727Z,100684.00
2018-08-14T12:15:09.612Z,100683.92
2018-08-14T12:18:13.919Z,100680.92
2018-08-14T12:21:18.145Z,100680.56
2018-08-14T12:24:22.368Z,100678.64
2018-08-14T12:27:26.589Z,100690.61
2018-08-14T12:30:30.838Z,100688.74
2018-08-14T12:33:35.113Z,100701.05
2018-08-14T12:36:39.337Z,100702.03
2018-08-14T12:39:43.556Z,100701.13
2018-08-14T12:42:47.781Z,100712.30
2018-08-14T12:45:52.017Z,100711.98
2018-08-14T12:48:56.216Z,100711.57
2018-08-14T12:52:00.453Z,100722.95
2018-08-14T12:55:05.052Z,100723.42
2018-08-14T12:58:09.244Z,100731.09
2018-08-14T13:01:13.461Z,100734.98
2018-08-14T13:04:17.693Z,100737.51
2018-08-14T13:07:21.920Z,100737.89
2018-08-14T13:10:26.169Z,100744.79
2018-08-14T13:13:30.380Z,100748.68
2018-08-14T13:16:34.663Z,100760.50
2018-08-14T13:19:38.889Z,100757.95
2018-08-14T13:22:43.096Z,100762.66
2018-08-14T13:25:47.400Z,100764.05
2018-08-14T13:28:51.613Z,100770.05
2018-08-14T13:31:55.826Z,100784.17
2018-08-14T13:35:00.086Z,100778.06
2018-08-14T13:38:04.308Z,100776.59
2018-08-14T13:41:08.576Z,100784.00
2018-08-14T13:44:12.796Z,100792.47
2018-08-14T13:47:17.038Z,100785.11
2018-08-14T13:50:21.291Z,100795.09
2018-08-14T13:53:25.524Z,100796.35
2018-08-14T13:56:29.753Z,100796.72
2018-08-14T13:59:33.963Z,100794.65
2018-08-14T14:02:39.083Z,100795.53
2018-08-14T14:05:43.353Z,100796.70
2018-08-14T14:08:47.577Z,100806.72
2018-08-14T14:11:51.843Z,100806.70
2018-08-14T14:14:56.050Z,100805.48
2018-08-14T14:18:00.317Z,100806.34
2018-08-14T14:21:04.817Z,100805.45
2018-08-14T14:24:09.030Z,100808.56
2018-08-14T14:27:13.369Z,100816.01
2018-08-14T14:30:18.173Z,100819.86
2018-08-14T14:33:22.485Z,100818.56
2018-08-14T14:36:26.725Z,100826.22
2018-08-14T14:39:30.990Z,100833.47
2018-08-14T14:42:35.232Z,100831.77
2018-08-14T14:45:39.489Z,100834.45
2018-08-14T14:48:43.752Z,100844.17
2018-08-14T14:51:47.976Z,100840.16
2018-08-14T14:54:52.185Z,100845.17
2018-08-14T14:57:56.429Z,100841.40
2018-08-14T15:01:00.671Z,100849.41
2018-08-14T15:04:04.873Z,100852.71
2018-08-14T15:07:09.144Z,100853.37
2018-08-14T15:10:13.386Z,100861.36
2018-08-14T15:13:17.614Z,100864.25
2018-08-14T15:16:21.845Z,100869.53
2018-08-14T15:19:26.121Z,100869.97
2018-08-14T15:22:30.397Z,100875.28
2018-08-14T15:25:34.665Z,100880.13
2018-08-14T15:29:01.879Z,100877.23
2018-08-14T15:32:06.159Z,100871.92
2018-08-14T15:35:10.386Z,100890.58
2018-08-14T15:38:14.653Z,100886.20
2018-08-14T15:41:19.206Z,100882.95
2018-08-14T15:44:23.503Z,100888.35
2018-08-14T15:47:27.764Z,100887.92
2018-08-14T15:50:31.973Z,100892.38
2018-08-14T15:53:36.233Z,100891.58
2018-08-14T15:56:40.821Z,100884.96
2018-08-14T15:59:45.014Z,100891.09
2018-08-14T16:02:49.209Z,100894.70
2018-08-14T16:05:53.427Z,100902.46
2018-08-14T16:08:57.861Z,100904.38
2018-08-14T16:12:02.099Z,100901.38
2018-08-14T16:15:06.500Z,100901.19
2018-08-14T16:18:10.805Z,100900.98
2018-08-14T16:21:15.052Z,100907.50
2018-08-14T16:24:19.520Z,100910.72
2018-08-14T16:27:23.788Z,100908.29
2018-08-14T16:30:28.291Z,100914.72
2018-08-14T16:33:32.704Z,100912.24
2018-08-14T16:36:36.991Z,100920.89
2018-08-14T16:39:41.193Z,100921.75
2018-08-14T16:42:45.404Z,100920.17
2018-08-14T16:45:49.607Z,100924.95
2018-08-14T16:48:54.037Z,100926.08
2018-08-14T16:51:58.237Z,100931.16
2018-08-14T16:55:02.501Z,100933.33
2018-08-14T16:58:07.171Z,100929.69
2018-08-14T17:01:11.432Z,100940.37
2018-08-14T17:04:15.612Z,100932.91
2018-08-14T17:07:19.849Z,100933.91
2018-08-14T17:10:25.120Z,100938.66
2018-08-14T17:13:29.372Z,100942.34
2018-08-14T17:16:33.609Z,100947.66
2018-08-14T17:19:37.677Z,100944.09
2018-08-14T17:22:42.287Z,100944.34
2018-08-14T17:25:46.493Z,100952.89
2018-08-14T17:28:50.715Z,100953.44
2018-08-14T17:31:54.927Z,100949.55
2018-08-14T17:34:59.228Z,100945.69
2018-08-14T17:38:03.438Z,100955.44
2018-08-14T17:41:07.641Z,100953.00
2018-08-14T17:44:11.972Z,100953.61
2018-08-14T17:47:16.157Z,100955.58
2018-08-14T17:50:20.797Z,100959.50
2018-08-14T17:53:25.001Z,100955.06
2018-08-14T17:56:29.521Z,100957.60
2018-08-14T17:59:33.696Z,100961.48
2018-08-14T18:02:37.893Z,100964.00
2018-08-14T18:05:42.096Z,100962.36
2018-08-14T18:08:46.325Z,100963.45
2018-08-14T18:11:50.505Z,100968.16
2018-08-14T18:14:54.712Z,100973.17
2018-08-14T18:17:58.902Z,100983.39
2018-08-14T18:21:03.121Z,100983.97
2018-08-14T18:24:07.360Z,100990.05
2018-08-14T18:27:11.597Z,100996.44
2018-08-14T18:30:17.037Z,100998.97
2018-08-14T18:33:21.405Z,101009.80
2018-08-14T18:36:25.505Z,101009.80
2018-08-14T18:39:29.736Z,101013.63
2018-08-14T18:42:33.971Z,101019.72
2018-08-14T18:45:38.153Z,101019.77
2018-08-14T18:48:42.391Z,101028.06
2018-08-14T18:51:46.601Z,101038.80
2018-08-14T18:54:50.837Z,101038.02
2018-08-14T18:57:55.044Z,101044.41
2018-08-14T19:00:59.253Z,101048.00
2018-08-14T19:04:03.815Z,101050.25
2018-08-14T19:07:08.092Z,101051.10
2018-08-14T19:10:13.441Z,101050.27
2018-08-14T19:13:17.669Z,101064.07
2018-08-14T19:16:21.883Z,101055.83
2018-08-14T19:19:26.089Z,101060.23
2018-08-14T19:22:30.297Z,101061.33
2018-08-14T19:25:34.534Z,101067.37
2018-08-14T19:28:38.752Z,101067.92
2018-08-14T19:31:42.964Z,101070.09
2018-08-14T19:34:47.145Z,101075.34
2018-08-14T19:37:51.392Z,101072.59
2018-08-14T19:40:55.612Z,101077.53
2018-08-14T19:43:59.835Z,101084.44
2018-08-14T19:47:04.029Z,101095.98
2018-08-14T19:50:08.482Z,101102.59
2018-08-14T19:53:12.696Z,101105.08
2018-08-14T19:56:16.893Z,101107.28
2018-08-14T19:59:21.121Z,101105.34
2018-08-14T20:02:25.317Z,101106.14
2018-08-14T20:05:29.544Z,101109.43
2018-08-14T20:08:33.761Z,101111.66
2018-08-14T20:11:38.169Z,101116.05
2018-08-14T20:14:42.340Z,101122.94
2018-08-14T20:17:46.548Z,101118.24
2018-08-14T20:20:50.792Z,101120.16
2018-08-14T20:23:55.006Z,101119.62
2018-08-14T20:26:59.324Z,101129.23
2018-08-14T20:30:03.616Z,101125.64
2018-08-14T20:33:07.975Z,101125.35
2018-08-14T20:36:12.203Z,101132.50
2018-08-14T20:39:16.441Z,101131.09
2018-08-14T20:42:20.638Z,101125.33
2018-08-14T20:45:24.857Z,101134.66
2018-08-14T20:48:29.062Z,101140.14
2018-08-14T20:51:33.280Z,101137.92
2018-08-14T20:54:37.465Z,101140.95
2018-08-14T20:57:42.681Z,101143.13
2018-08-14T21:00:46.883Z,101151.11
2018-08-14T21:03:51.085Z,101158.27
2018-08-14T21:06:55.308Z,101168.16
2018-08-14T21:09:59.504Z,101166.22
2018-08-14T21:13:03.737Z,101172.22
2018-08-14T21:16:13.384Z,101174.44
2018-08-14T21:19:17.580Z,101174.13
2018-08-14T21:22:21.823Z,101175.20
2018-08-14T21:25:26.032Z,101177.72
2018-08-14T21:28:30.255Z,101181.84
2018-08-14T21:31:34.473Z,101182.63
2018-08-14T21:34:38.751Z,101194.47
2018-08-14T21:37:42.964Z,101193.63
2018-08-14T21:40:47.171Z,101192.25
2018-08-14T21:43:51.414Z,101201.57
2018-08-14T21:46:55.618Z,101203.74
2018-08-14T21:49:59.863Z,101212.30
2018-08-14T21:53:04.099Z,101209.52
2018-08-14T21:56:08.771Z,101219.15
2018-08-14T21:59:13.029Z,101223.00
2018-08-14T22:02:17.250Z,101225.22
2018-08-14T22:05:21.527Z,101224.42
2018-08-14T22:08:25.776Z,101224.65
2018-08-14T22:11:29.985Z,101223.27
2018-08-14T22:14:34.168Z,101225.48
2018-08-14T22:17:38.406Z,101228.20
2018-08-14T22:20:42.636Z,101233.69
2018-08-14T22:23:46.840Z,101233.11
2018-08-14T22:26:51.052Z,101229.82
2018-08-14T22:29:55.273Z,101232.56
2018-08-14T22:32:59.477Z,101244.42
2018-08-14T22:36:03.668Z,101249.34
2018-08-14T22:39:09.440Z,101250.72
2018-08-14T22:42:13.626Z,101244.32
2018-08-14T22:45:17.869Z,101245.95
2018-08-14T22:48:22.067Z,101245.95
2018-08-14T22:51:26.272Z,101257.17
2018-08-14T22:54:30.543Z,101263.77
2018-08-14T22:57:34.743Z,101259.59
2018-08-14T23:00:38.957Z,101258.99
2018-08-14T23:03:43.150Z,101259.52
2018-08-14T23:06:47.391Z,101259.52
2018-08-14T23:09:51.650Z,101265.81
2018-08-14T23:12:55.857Z,101262.48
2018-08-14T23:16:05.999Z,101269.30
2018-08-14T23:19:10.217Z,101265.68
2018-08-14T23:22:14.398Z,101264.84
2018-08-14T23:25:18.625Z,101267.31
2018-08-14T23:28:22.845Z,101270.91
2018-08-14T23:31:27.107Z,101277.47
2018-08-14T23:34:31.305Z,101276.66
2018-08-14T23:37:35.608Z,101287.03
2018-08-14T23:40:39.801Z,101285.05
2018-08-14T23:43:44.022Z,101290.00
2018-08-14T23:46:48.221Z,101297.94
2018-08-14T23:49:52.412Z,101292.42
2018-08-14T23:52:56.629Z,101295.97
2018-08-14T23:56:00.849Z,101299.50
2018-08-14T23:59:05.509Z,101297.53
